createdAt,value
2023-04-09T00:01:18.506Z,28.65
2023-04-09T00:02:42.060Z,30.80
2023-04-09T00:04:05.726Z,27.73
2023-04-09T00:05:29.539Z,29.25
2023-04-09T00:06:54.629Z,28.95
2023-04-09T00:08:17.000Z,26.33
2023-04-09T00:09:40.432Z,27.65
2023-04-09T00:11:03.872Z,29.83
2023-04-09T00:12:26.361Z,28.67
2023-04-09T00:13:49.708Z,28.70
2023-04-09T00:15:24.122Z,30.50
2023-04-09T00:16:54.326Z,28.98
2023-04-09T00:18:17.791Z,30.83
2023-04-09T00:19:40.252Z,27.17
2023-04-09T00:21:05.551Z,30.17
2023-04-09T00:22:28.919Z,29.40
2023-04-09T00:23:52.275Z,27.38
2023-04-09T00:25:14.897Z,27.92
2023-04-09T00:26:38.235Z,31.92
2023-04-09T00:28:00.783Z,32.75
2023-04-09T00:29:24.245Z,30.52
2023-04-09T00:30:47.606Z,30.63
2023-04-09T00:32:10.348Z,31.48
2023-04-09T00:33:33.690Z,29.73
2023-04-09T00:34:56.967Z,27.02
2023-04-09T00:36:21.700Z,27.80
2023-04-09T00:37:45.201Z,30.05
2023-04-09T00:39:08.544Z,28.42
2023-04-09T00:40:33.038Z,32.90
2023-04-09T00:41:58.904Z,31.23
2023-04-09T00:43:22.311Z,31.17
2023-04-09T00:44:45.655Z,26.83
2023-04-09T00:46:09.098Z,32.10
2023-04-09T00:47:32.648Z,28.00
2023-04-09T00:48:55.220Z,27.15
2023-04-09T00:50:18.638Z,30.13
2023-04-09T00:51:42.412Z,30.88
2023-04-09T00:53:06.895Z,33.40
2023-04-09T00:54:29.368Z,30.08
2023-04-09T00:55:53.469Z,29.25
2023-04-09T00:57:16.737Z,33.55
2023-04-09T00:58:42.371Z,27.75
2023-04-09T01:00:07.779Z,29.08
2023-04-09T01:01:31.365Z,29.75
2023-04-09T01:02:58.299Z,26.50
2023-04-09T01:04:22.488Z,27.13
2023-04-09T01:05:51.014Z,33.17
2023-04-09T01:07:24.679Z,33.78
2023-04-09T01:08:53.626Z,33.10
2023-04-09T01:10:22.652Z,31.38
2023-04-09T01:11:53.098Z,27.10
2023-04-09T01:13:20.321Z,29.58
2023-04-09T01:14:51.985Z,27.17
2023-04-09T01:16:16.790Z,27.50
2023-04-09T01:17:45.448Z,27.85
2023-04-09T01:19:16.329Z,29.38
2023-04-09T01:20:41.578Z,29.00
2023-04-09T01:22:07.659Z,26.48
2023-04-09T01:23:38.829Z,35.08
2023-04-09T01:25:20.996Z,29.05
2023-04-09T01:26:57.157Z,24.20
2023-04-09T01:28:25.129Z,26.38
2023-04-09T01:29:48.892Z,29.98
2023-04-09T01:31:14.437Z,28.63
2023-04-09T01:32:38.392Z,29.20
2023-04-09T01:34:02.539Z,28.73
2023-04-09T01:35:26.034Z,31.40
2023-04-09T01:36:53.855Z,27.10
2023-04-09T01:38:18.730Z,23.63
2023-04-09T01:39:42.807Z,26.63
2023-04-09T01:41:05.449Z,30.88
2023-04-09T01:42:29.652Z,31.05
2023-04-09T01:44:01.187Z,25.77
2023-04-09T01:45:24.960Z,27.30
2023-04-09T01:46:48.694Z,27.45
2023-04-09T01:48:11.514Z,24.98
2023-04-09T01:49:34.946Z,26.80
2023-04-09T01:50:59.133Z,33.22
2023-04-09T01:52:22.718Z,28.40
2023-04-09T01:53:46.299Z,34.83
2023-04-09T01:55:10.279Z,27.40
2023-04-09T01:56:42.402Z,28.17
2023-04-09T01:58:05.862Z,29.15
2023-04-09T01:59:31.051Z,29.60
2023-04-09T02:00:59.735Z,31.65
2023-04-09T02:02:30.543Z,30.08
2023-04-09T02:03:56.526Z,28.30
2023-04-09T02:05:23.118Z,30.85
2023-04-09T02:06:50.179Z,31.30
2023-04-09T02:08:15.678Z,29.80
2023-04-09T02:09:41.471Z,40.78
2023-04-09T02:11:06.757Z,30.13
2023-04-09T02:12:32.688Z,25.23
2023-04-09T02:13:56.837Z,31.48
2023-04-09T02:15:21.997Z,30.38
2023-04-09T02:16:45.681Z,28.38
2023-04-09T02:18:23.132Z,30.30
2023-04-09T02:19:47.694Z,32.95
2023-04-09T02:21:13.667Z,34.20
2023-04-09T02:22:37.089Z,27.33
2023-04-09T02:24:00.604Z,30.88
2023-04-09T02:25:24.679Z,29.92
2023-04-09T02:26:47.074Z,33.88
2023-04-09T02:28:10.451Z,31.70
2023-04-09T02:29:34.205Z,31.50
2023-04-09T02:30:59.080Z,30.92
2023-04-09T02:32:22.488Z,33.10
2023-04-09T02:33:45.861Z,29.23
2023-04-09T02:35:08.811Z,25.27
2023-04-09T02:36:32.228Z,29.95
2023-04-09T02:37:55.664Z,27.23
2023-04-09T02:39:18.269Z,29.70
2023-04-09T02:40:42.137Z,33.67
2023-04-09T02:42:07.765Z,37.17
2023-04-09T02:43:31.174Z,29.60
2023-04-09T02:44:54.552Z,29.27
2023-04-09T02:46:24.696Z,33.67
2023-04-09T02:47:47.072Z,30.45
2023-04-09T02:49:10.490Z,30.17
2023-04-09T02:50:33.825Z,27.02
2023-04-09T02:51:58.009Z,34.30
2023-04-09T02:53:21.492Z,33.05
2023-04-09T02:54:44.883Z,28.38
2023-04-09T02:56:07.456Z,32.05
2023-04-09T02:57:30.815Z,30.88
2023-04-09T02:58:54.543Z,31.52
2023-04-09T03:00:18.030Z,30.52
2023-04-09T03:01:42.925Z,33.45
2023-04-09T03:03:06.448Z,29.90
2023-04-09T03:04:29.856Z,31.08
2023-04-09T03:05:53.213Z,28.73
2023-04-09T03:07:15.591Z,30.95
2023-04-09T03:08:38.993Z,32.75
2023-04-09T03:10:02.333Z,29.70
2023-04-09T03:11:24.766Z,30.52
2023-04-09T03:12:48.142Z,28.70
2023-04-09T03:14:12.137Z,31.65
2023-04-09T03:15:35.517Z,31.60
2023-04-09T03:17:00.239Z,29.77
2023-04-09T03:18:23.585Z,27.40
2023-04-09T03:19:55.225Z,30.40
2023-04-09T03:21:18.574Z,32.08
2023-04-09T03:22:42.039Z,27.60
2023-04-09T03:24:05.781Z,30.08
2023-04-09T03:25:29.055Z,33.65
2023-04-09T03:26:52.416Z,30.42
2023-04-09T03:28:14.846Z,31.58
2023-04-09T03:29:38.194Z,32.72
2023-04-09T03:31:00.687Z,30.10
2023-04-09T03:32:25.448Z,31.75
2023-04-09T03:33:48.839Z,30.58
2023-04-09T03:35:12.207Z,31.20
2023-04-09T03:36:35.721Z,37.13
2023-04-09T03:37:59.077Z,32.63
2023-04-09T03:39:22.475Z,28.95
2023-04-09T03:40:44.898Z,30.20
2023-04-09T03:42:08.575Z,30.38
2023-04-09T03:43:31.069Z,30.65
2023-04-09T03:44:55.376Z,31.20
2023-04-09T03:46:19.149Z,33.90
2023-04-09T03:47:42.999Z,30.88
2023-04-09T03:49:09.572Z,34.13
2023-04-09T03:50:32.925Z,30.63
2023-04-09T03:51:56.283Z,29.40
2023-04-09T03:53:19.668Z,29.23
2023-04-09T03:54:43.462Z,33.67
2023-04-09T03:56:07.510Z,33.92
2023-04-09T03:57:29.882Z,30.65
2023-04-09T03:58:54.377Z,31.92
2023-04-09T04:00:18.175Z,31.63
2023-04-09T04:01:41.607Z,32.20
2023-04-09T04:03:05.805Z,27.80
2023-04-09T04:04:29.541Z,32.33
2023-04-09T04:05:52.041Z,32.10
2023-04-09T04:07:15.438Z,33.00
2023-04-09T04:08:38.859Z,28.98
2023-04-09T04:10:01.395Z,29.20
2023-04-09T04:11:24.843Z,30.63
2023-04-09T04:12:48.334Z,30.08
2023-04-09T04:14:10.902Z,29.45
2023-04-09T04:15:34.253Z,31.08
2023-04-09T04:16:57.592Z,35.70
2023-04-09T04:18:21.337Z,30.63
2023-04-09T04:19:44.685Z,30.05
2023-04-09T04:21:13.365Z,27.55
2023-04-09T04:22:36.765Z,32.47
2023-04-09T04:23:59.200Z,33.30
2023-04-09T04:25:22.557Z,29.70
2023-04-09T04:26:45.012Z,31.27
2023-04-09T04:28:08.405Z,30.40
2023-04-09T04:29:31.797Z,31.73
2023-04-09T04:30:54.330Z,30.50
2023-04-09T04:32:18.510Z,31.20
2023-04-09T04:33:43.250Z,31.27
2023-04-09T04:35:07.218Z,32.92
2023-04-09T04:36:30.712Z,29.92
2023-04-09T04:37:53.151Z,28.20
2023-04-09T04:39:16.522Z,28.42
2023-04-09T04:40:38.923Z,26.08
2023-04-09T04:42:02.400Z,28.70
2023-04-09T04:43:24.834Z,26.23
2023-04-09T04:44:48.188Z,27.25
2023-04-09T04:46:11.623Z,27.13
2023-04-09T04:47:35.039Z,27.02
2023-04-09T04:49:01.468Z,24.35
2023-04-09T04:50:23.863Z,24.60
2023-04-09T04:51:47.243Z,24.10
2023-04-09T04:53:10.673Z,26.08
2023-04-09T04:54:34.475Z,29.05
2023-04-09T04:55:56.951Z,27.90
2023-04-09T04:57:20.396Z,29.88
2023-04-09T04:58:43.817Z,25.80
2023-04-09T05:00:08.713Z,26.58
2023-04-09T05:01:31.275Z,25.33
2023-04-09T05:02:54.871Z,27.98
2023-04-09T05:04:19.653Z,26.73
2023-04-09T05:05:43.892Z,26.70
2023-04-09T05:07:07.227Z,26.80
2023-04-09T05:08:30.911Z,24.17
2023-04-09T05:09:54.483Z,26.45
2023-04-09T05:11:16.937Z,35.55
2023-04-09T05:12:40.466Z,25.00
2023-04-09T05:14:04.730Z,40.45
2023-04-09T05:15:28.129Z,36.65
2023-04-09T05:16:53.057Z,33.40
2023-04-09T05:18:16.484Z,32.55
2023-04-09T05:19:41.214Z,28.00
2023-04-09T05:21:04.706Z,32.47
2023-04-09T05:22:28.096Z,28.60
2023-04-09T05:23:50.464Z,41.92
2023-04-09T05:25:16.033Z,35.28
2023-04-09T05:26:38.502Z,40.60
2023-04-09T05:28:06.581Z,32.60
2023-04-09T05:29:29.005Z,45.28
2023-04-09T05:30:52.384Z,40.38
2023-04-09T05:32:16.030Z,35.58
2023-04-09T05:33:39.484Z,45.55
2023-04-09T05:35:03.368Z,46.28
2023-04-09T05:36:27.158Z,35.70
2023-04-09T05:37:50.540Z,53.67
2023-04-09T05:39:14.752Z,43.13
2023-04-09T05:40:38.098Z,37.05
2023-04-09T05:42:00.886Z,36.17
2023-04-09T05:43:24.320Z,47.53
2023-04-09T05:44:46.738Z,48.40
2023-04-09T05:46:10.836Z,40.20
2023-04-09T05:47:34.329Z,44.35
2023-04-09T05:48:57.689Z,44.80
2023-04-09T05:50:22.512Z,44.75
2023-04-09T05:51:46.527Z,60.58
2023-04-09T05:53:09.901Z,50.20
2023-04-09T05:54:33.306Z,40.83
2023-04-09T05:55:56.710Z,37.00
2023-04-09T05:57:20.118Z,44.70
2023-04-09T05:58:43.654Z,42.13
2023-04-09T06:00:08.778Z,45.67
2023-04-09T06:01:32.238Z,41.42
2023-04-09T06:02:55.785Z,43.65
2023-04-09T06:04:19.354Z,38.83
2023-04-09T06:05:45.841Z,38.42
2023-04-09T06:07:09.338Z,39.47
2023-04-09T06:08:32.762Z,43.67
2023-04-09T06:09:56.980Z,44.10
2023-04-09T06:11:21.295Z,41.35
2023-04-09T06:12:47.777Z,37.17
2023-04-09T06:14:12.182Z,57.20
2023-04-09T06:15:34.577Z,48.78
2023-04-09T06:16:57.950Z,39.10
2023-04-09T06:18:23.070Z,52.72
2023-04-09T06:19:46.472Z,41.33
2023-04-09T06:21:13.398Z,49.95
2023-04-09T06:22:36.761Z,44.05
2023-04-09T06:23:59.146Z,44.08
2023-04-09T06:25:22.759Z,47.28
2023-04-09T06:26:46.166Z,36.88
2023-04-09T06:28:09.559Z,47.38
2023-04-09T06:29:33.022Z,42.78
2023-04-09T06:30:56.472Z,44.05
2023-04-09T06:32:19.889Z,39.55
2023-04-09T06:33:43.285Z,47.58
2023-04-09T06:35:10.895Z,40.55
2023-04-09T06:36:37.605Z,40.05
2023-04-09T06:38:01.009Z,43.63
2023-04-09T06:39:24.386Z,40.95
2023-04-09T06:40:48.345Z,38.05
2023-04-09T06:42:11.761Z,43.22
2023-04-09T06:43:35.950Z,43.40
2023-04-09T06:44:59.350Z,45.92
2023-04-09T06:46:24.290Z,36.42
2023-04-09T06:47:47.743Z,38.35
2023-04-09T06:49:11.337Z,39.67
2023-04-09T06:50:34.703Z,38.00
2023-04-09T06:52:00.269Z,39.38
2023-04-09T06:53:23.665Z,35.22
2023-04-09T06:54:47.404Z,36.47
2023-04-09T06:56:11.230Z,32.15
2023-04-09T06:57:34.637Z,35.60
2023-04-09T06:58:58.010Z,33.65
2023-04-09T07:00:22.980Z,33.65
2023-04-09T07:01:47.751Z,33.88
2023-04-09T07:03:11.516Z,30.33
2023-04-09T07:04:35.140Z,29.73
2023-04-09T07:05:58.967Z,30.23
2023-04-09T07:07:25.631Z,27.20
2023-04-09T07:08:48.444Z,27.23
2023-04-09T07:10:12.104Z,25.92
2023-04-09T07:11:35.527Z,29.58
2023-04-09T07:12:58.894Z,23.30
2023-04-09T07:14:22.380Z,28.42
2023-04-09T07:15:45.853Z,27.10
2023-04-09T07:17:09.363Z,26.80
2023-04-09T07:18:32.833Z,24.35
2023-04-09T07:19:56.560Z,24.67
2023-04-09T07:21:19.947Z,29.75
2023-04-09T07:22:44.728Z,25.95
2023-04-09T07:24:08.522Z,26.73
2023-04-09T07:25:32.336Z,29.50
2023-04-09T07:26:56.274Z,24.92
2023-04-09T07:28:19.677Z,25.30
2023-04-09T07:29:44.910Z,25.60
2023-04-09T07:31:08.674Z,22.30
2023-04-09T07:32:32.158Z,25.05
2023-04-09T07:33:55.615Z,27.70
2023-04-09T07:35:19.524Z,25.90
2023-04-09T07:36:43.625Z,26.92
2023-04-09T07:38:08.767Z,25.20
2023-04-09T07:39:32.384Z,24.70
2023-04-09T07:40:55.785Z,24.02
2023-04-09T07:42:20.001Z,23.60
2023-04-09T07:43:43.388Z,24.38
2023-04-09T07:45:06.927Z,26.25
2023-04-09T07:46:30.348Z,24.27
2023-04-09T07:47:53.828Z,23.10
2023-04-09T07:49:17.434Z,24.23
2023-04-09T07:50:40.812Z,23.88
2023-04-09T07:52:04.277Z,23.90
2023-04-09T07:53:35.443Z,28.58
2023-04-09T07:54:58.822Z,25.40
2023-04-09T07:56:22.333Z,24.23
2023-04-09T07:57:45.946Z,25.13
2023-04-09T07:59:09.362Z,26.60
2023-04-09T08:00:33.001Z,24.20
2023-04-09T08:01:56.493Z,22.70
2023-04-09T08:03:20.383Z,25.23
2023-04-09T08:04:44.147Z,25.10
2023-04-09T08:06:08.379Z,21.20
2023-04-09T08:07:31.791Z,21.45
2023-04-09T08:08:56.541Z,22.02
2023-04-09T08:10:20.116Z,23.38
2023-04-09T08:11:45.598Z,21.25
2023-04-09T08:13:10.180Z,23.27
2023-04-09T08:14:35.440Z,21.40
2023-04-09T08:15:59.019Z,22.50
2023-04-09T08:17:23.269Z,22.02
2023-04-09T08:18:46.714Z,21.80
2023-04-09T08:20:11.276Z,26.20
2023-04-09T08:21:34.723Z,25.38
2023-04-09T08:22:59.101Z,23.83
2023-04-09T08:24:24.149Z,20.77
2023-04-09T08:25:48.705Z,24.92
2023-04-09T08:27:12.295Z,24.55
2023-04-09T08:28:35.762Z,27.83
2023-04-09T08:29:59.143Z,24.38
2023-04-09T08:31:22.542Z,25.80
2023-04-09T08:32:46.053Z,23.60
2023-04-09T08:34:09.506Z,26.88
2023-04-09T08:35:33.412Z,23.48
2023-04-09T08:36:56.936Z,23.98
2023-04-09T08:38:20.545Z,25.10
2023-04-09T08:39:45.311Z,28.20
2023-04-09T08:41:08.721Z,22.65
2023-04-09T08:42:33.277Z,27.48
2023-04-09T08:43:59.250Z,27.13
2023-04-09T08:45:24.042Z,25.77
2023-04-09T08:46:47.469Z,22.45
2023-04-09T08:48:11.722Z,25.13
2023-04-09T08:49:36.072Z,22.27
2023-04-09T08:50:59.483Z,26.83
2023-04-09T08:52:33.205Z,29.17
2023-04-09T08:53:58.572Z,24.83
2023-04-09T08:55:24.305Z,25.60
2023-04-09T08:56:47.909Z,27.40
2023-04-09T08:58:11.436Z,26.42
2023-04-09T08:59:37.010Z,25.75
2023-04-09T09:01:02.322Z,27.77
2023-04-09T09:02:25.849Z,24.90
2023-04-09T09:03:58.818Z,25.00
2023-04-09T09:05:37.344Z,25.48
2023-04-09T09:07:07.894Z,25.48
2023-04-09T09:08:31.234Z,26.90
2023-04-09T09:09:58.951Z,25.73
2023-04-09T09:11:30.308Z,23.67
2023-04-09T09:12:53.706Z,28.58
2023-04-09T09:14:18.102Z,25.55
2023-04-09T09:15:40.495Z,24.67
2023-04-09T09:17:08.405Z,24.58
2023-04-09T09:18:40.450Z,23.45
2023-04-09T09:20:21.555Z,22.23
2023-04-09T09:21:44.967Z,25.50
2023-04-09T09:23:08.756Z,25.33
2023-04-09T09:24:34.832Z,25.50
2023-04-09T09:25:58.276Z,24.40
2023-04-09T09:27:39.207Z,24.90
2023-04-09T09:29:05.828Z,23.98
2023-04-09T09:30:28.422Z,25.65
2023-04-09T09:31:52.857Z,24.30
2023-04-09T09:33:16.536Z,24.15
2023-04-09T09:34:40.174Z,26.33
2023-04-09T09:36:04.001Z,24.92
2023-04-09T09:37:30.936Z,25.38
2023-04-09T09:38:56.160Z,26.02
2023-04-09T09:40:28.892Z,26.30
2023-04-09T09:42:10.980Z,26.75
2023-04-09T09:43:42.552Z,26.23
2023-04-09T09:45:19.295Z,26.23
2023-04-09T09:46:43.314Z,23.52
2023-04-09T09:48:07.117Z,28.23
2023-04-09T09:49:30.677Z,27.35
2023-04-09T09:50:54.344Z,24.00
2023-04-09T09:52:21.743Z,23.02
2023-04-09T09:53:46.571Z,25.15
2023-04-09T09:55:11.666Z,23.52
2023-04-09T09:56:39.337Z,23.98
2023-04-09T09:58:03.808Z,25.48
2023-04-09T09:59:40.132Z,25.52
2023-04-09T10:01:04.463Z,25.00
2023-04-09T10:02:31.327Z,25.15
2023-04-09T10:03:55.130Z,23.80
2023-04-09T10:05:18.707Z,24.60
2023-04-09T10:06:45.066Z,24.38
2023-04-09T10:08:08.753Z,24.95
2023-04-09T10:09:32.728Z,22.95
2023-04-09T10:10:57.872Z,23.85
2023-04-09T10:12:24.234Z,23.13
2023-04-09T10:13:52.220Z,25.45
2023-04-09T10:15:19.230Z,25.23
2023-04-09T10:16:42.968Z,23.45
2023-04-09T10:18:06.325Z,24.33
2023-04-09T10:19:29.720Z,23.65
2023-04-09T10:20:58.003Z,24.95
2023-04-09T10:22:23.825Z,28.23
2023-04-09T10:23:50.775Z,24.70
2023-04-09T10:25:14.301Z,25.92
2023-04-09T10:26:41.003Z,26.98
2023-04-09T10:28:08.672Z,26.73
2023-04-09T10:29:32.076Z,28.90
2023-04-09T10:30:57.444Z,26.85
2023-04-09T10:32:22.265Z,25.33
2023-04-09T10:33:46.766Z,27.77
2023-04-09T10:35:11.294Z,30.05
2023-04-09T10:36:34.779Z,25.60
2023-04-09T10:37:58.160Z,26.20
2023-04-09T10:39:21.663Z,24.08
2023-04-09T10:40:49.471Z,30.75
2023-04-09T10:42:16.060Z,27.52
2023-04-09T10:43:39.470Z,30.25
2023-04-09T10:45:10.186Z,25.35
2023-04-09T10:46:37.086Z,26.88
2023-04-09T10:48:04.912Z,25.73
2023-04-09T10:49:29.176Z,24.45
2023-04-09T10:50:53.109Z,26.65
2023-04-09T10:52:16.500Z,28.15
2023-04-09T10:53:40.601Z,26.08
2023-04-09T10:55:04.264Z,29.25
2023-04-09T10:56:27.679Z,27.08
2023-04-09T10:57:51.051Z,27.33
2023-04-09T10:59:14.429Z,23.45
2023-04-09T11:00:39.530Z,29.23
2023-04-09T11:02:09.722Z,24.50
2023-04-09T11:03:39.433Z,23.90
2023-04-09T11:05:07.329Z,27.52
2023-04-09T11:06:31.107Z,29.33
2023-04-09T11:08:00.169Z,26.60
2023-04-09T11:09:23.541Z,26.20
2023-04-09T11:10:49.704Z,23.60
2023-04-09T11:12:13.725Z,22.25
2023-04-09T11:13:37.182Z,22.98
2023-04-09T11:14:59.611Z,27.63
2023-04-09T11:16:26.598Z,23.55
2023-04-09T11:17:51.984Z,23.23
2023-04-09T11:19:17.126Z,25.92
2023-04-09T11:20:39.700Z,23.10
2023-04-09T11:22:06.606Z,25.75
2023-04-09T11:23:30.265Z,24.38
2023-04-09T11:24:54.888Z,25.70
2023-04-09T11:26:18.261Z,23.13
2023-04-09T11:27:47.803Z,26.60
2023-04-09T11:29:11.194Z,25.42
2023-04-09T11:30:36.219Z,23.92
2023-04-09T11:31:59.643Z,24.98
2023-04-09T11:33:24.438Z,25.02
2023-04-09T11:34:47.823Z,25.40
2023-04-09T11:36:11.560Z,21.63
2023-04-09T11:37:38.265Z,23.05
2023-04-09T11:39:04.457Z,28.58
2023-04-09T11:40:29.089Z,26.88
2023-04-09T11:41:52.662Z,26.58
2023-04-09T11:43:17.074Z,22.95
2023-04-09T11:44:41.025Z,23.77
2023-04-09T11:46:04.469Z,21.75
2023-04-09T11:47:27.365Z,22.52
2023-04-09T11:48:52.327Z,26.30
2023-04-09T11:50:16.108Z,25.83
2023-04-09T11:51:39.552Z,24.83
2023-04-09T11:53:03.892Z,24.95
2023-04-09T11:54:26.296Z,21.15
2023-04-09T11:55:52.277Z,18.95
2023-04-09T11:57:14.834Z,22.45
2023-04-09T11:58:38.493Z,22.65
2023-04-09T12:00:03.826Z,22.85
2023-04-09T12:01:33.104Z,24.73
2023-04-09T12:03:04.818Z,20.17
2023-04-09T12:04:35.542Z,24.38
2023-04-09T12:06:02.002Z,23.88
2023-04-09T12:07:25.563Z,21.10
2023-04-09T12:08:49.531Z,18.70
2023-04-09T12:10:14.022Z,22.30
2023-04-09T12:11:38.745Z,19.95
2023-04-09T12:13:06.918Z,21.90
2023-04-09T12:14:30.316Z,22.10
2023-04-09T12:15:54.592Z,21.65
2023-04-09T12:17:18.005Z,17.65
2023-04-09T12:18:42.155Z,20.50
2023-04-09T12:20:09.726Z,18.13
2023-04-09T12:21:47.973Z,18.00
2023-04-09T12:23:12.258Z,19.92
2023-04-09T12:24:35.833Z,20.17
2023-04-09T12:26:01.084Z,21.73
2023-04-09T12:27:25.601Z,19.92
2023-04-09T12:28:49.011Z,20.75
2023-04-09T12:30:12.790Z,19.25
2023-04-09T12:31:36.780Z,16.00
2023-04-09T12:33:02.588Z,18.33
2023-04-09T12:34:27.246Z,20.45
2023-04-09T12:35:52.184Z,15.65
2023-04-09T12:37:15.573Z,21.25
2023-04-09T12:38:38.966Z,18.80
2023-04-09T12:40:01.336Z,17.55
2023-04-09T12:41:24.805Z,21.20
2023-04-09T12:42:48.444Z,17.90
2023-04-09T12:44:11.931Z,15.43
2023-04-09T12:45:35.484Z,13.48
2023-04-09T12:46:58.938Z,13.55
2023-04-09T12:48:22.312Z,17.13
2023-04-09T12:49:46.698Z,15.30
2023-04-09T12:51:11.857Z,18.65
2023-04-09T12:52:35.700Z,18.73
2023-04-09T12:53:59.068Z,19.65
2023-04-09T12:55:23.021Z,19.30
2023-04-09T12:56:46.582Z,19.98
2023-04-09T12:58:09.967Z,19.35
2023-04-09T12:59:32.562Z,21.00
2023-04-09T13:00:57.683Z,20.83
2023-04-09T13:02:21.561Z,18.30
2023-04-09T13:03:45.308Z,20.95
2023-04-09T13:05:09.311Z,21.77
2023-04-09T13:06:36.730Z,20.60
2023-04-09T13:08:00.160Z,23.95
2023-04-09T13:09:23.576Z,22.80
2023-04-09T13:10:46.996Z,21.70
2023-04-09T13:12:11.276Z,20.92
2023-04-09T13:13:34.662Z,18.70
2023-04-09T13:14:59.109Z,18.63
2023-04-09T13:16:22.616Z,18.83
2023-04-09T13:17:46.334Z,18.38
2023-04-09T13:19:09.265Z,18.48
2023-04-09T13:20:32.690Z,20.80
2023-04-09T13:21:57.438Z,19.52
2023-04-09T13:23:21.705Z,20.58
2023-04-09T13:24:45.154Z,17.17
2023-04-09T13:26:08.570Z,18.40
2023-04-09T13:27:31.973Z,18.92
2023-04-09T13:28:55.502Z,20.20
2023-04-09T13:30:18.894Z,19.95
2023-04-09T13:31:42.274Z,18.08
2023-04-09T13:33:05.667Z,16.83
2023-04-09T13:34:29.831Z,18.55
2023-04-09T13:35:53.305Z,15.40
2023-04-09T13:37:18.267Z,16.08
2023-04-09T13:38:41.854Z,22.30
2023-04-09T13:40:05.618Z,15.93
2023-04-09T13:41:30.773Z,16.98
2023-04-09T13:42:55.376Z,17.02
2023-04-09T13:44:18.719Z,15.77
2023-04-09T13:45:42.075Z,19.00
2023-04-09T13:47:05.435Z,16.38
2023-04-09T13:48:28.828Z,14.90
2023-04-09T13:49:53.066Z,16.00
2023-04-09T13:51:16.543Z,17.10
2023-04-09T13:52:41.258Z,14.07
2023-04-09T13:54:06.037Z,15.35
2023-04-09T13:55:30.870Z,15.95
2023-04-09T13:56:54.261Z,23.83
2023-04-09T13:58:17.624Z,20.20
2023-04-09T13:59:42.382Z,19.13
2023-04-09T14:01:14.380Z,18.23
2023-04-09T14:02:37.886Z,16.98
2023-04-09T14:04:01.454Z,17.25
2023-04-09T14:05:25.047Z,19.23
2023-04-09T14:06:48.511Z,22.95
2023-04-09T14:08:14.206Z,19.50
2023-04-09T14:09:37.573Z,20.05
2023-04-09T14:11:00.936Z,22.20
2023-04-09T14:12:24.313Z,15.93
2023-04-09T14:13:48.473Z,22.48
2023-04-09T14:15:12.356Z,14.65
2023-04-09T14:16:36.186Z,14.93
2023-04-09T14:17:58.791Z,13.75
2023-04-09T14:19:22.231Z,16.92
2023-04-09T14:20:45.654Z,15.45
2023-04-09T14:22:10.287Z,14.10
2023-04-09T14:23:35.863Z,14.60
2023-04-09T14:24:59.370Z,16.88
2023-04-09T14:26:24.261Z,16.50
2023-04-09T14:27:47.831Z,14.77
2023-04-09T14:29:11.228Z,14.27
2023-04-09T14:30:36.348Z,17.60
2023-04-09T14:31:59.997Z,12.65
2023-04-09T14:33:23.417Z,15.40
2023-04-09T14:34:46.883Z,12.85
2023-04-09T14:36:11.746Z,14.98
2023-04-09T14:37:35.469Z,14.10
2023-04-09T14:39:00.608Z,13.15
2023-04-09T14:40:24.174Z,15.23
2023-04-09T14:41:49.167Z,14.85
2023-04-09T14:43:12.543Z,16.65
2023-04-09T14:44:35.928Z,13.07
2023-04-09T14:45:59.398Z,11.55
2023-04-09T14:47:22.839Z,11.73
2023-04-09T14:48:46.536Z,11.20
2023-04-09T14:50:11.100Z,14.52
2023-04-09T14:51:34.873Z,12.82
2023-04-09T14:52:58.338Z,12.30
2023-04-09T14:54:22.106Z,13.55
2023-04-09T14:55:45.854Z,15.95
2023-04-09T14:57:09.248Z,16.63
2023-04-09T14:58:31.935Z,16.52
2023-04-09T14:59:55.351Z,19.80
2023-04-09T15:01:18.768Z,16.83
2023-04-09T15:02:42.602Z,15.35
2023-04-09T15:04:06.602Z,15.73
2023-04-09T15:05:30.326Z,12.60
2023-04-09T15:06:52.826Z,14.10
2023-04-09T15:08:16.209Z,12.18
2023-04-09T15:09:41.604Z,13.73
2023-04-09T15:11:05.306Z,13.07
2023-04-09T15:12:28.859Z,15.13
2023-04-09T15:13:53.129Z,15.85
2023-04-09T15:15:17.343Z,13.38
2023-04-09T15:16:40.778Z,13.77
2023-04-09T15:18:06.213Z,11.50
2023-04-09T15:19:29.717Z,12.20
2023-04-09T15:20:53.893Z,12.85
2023-04-09T15:22:16.485Z,13.18
2023-04-09T15:23:39.861Z,12.00
2023-04-09T15:25:04.740Z,10.93
2023-04-09T15:26:28.301Z,13.70
2023-04-09T15:27:51.775Z,11.10
2023-04-09T15:29:15.393Z,13.60
2023-04-09T15:30:38.817Z,17.13
2023-04-09T15:32:02.371Z,12.98
2023-04-09T15:33:27.223Z,15.77
2023-04-09T15:34:50.931Z,11.85
2023-04-09T15:36:14.476Z,11.93
2023-04-09T15:37:39.596Z,14.85
2023-04-09T15:39:04.663Z,12.57
2023-04-09T15:40:30.773Z,17.65
2023-04-09T15:41:54.156Z,14.82
2023-04-09T15:43:18.427Z,14.35
2023-04-09T15:44:41.872Z,14.90
2023-04-09T15:46:10.581Z,15.30
2023-04-09T15:47:34.109Z,14.70
2023-04-09T15:48:58.472Z,15.20
2023-04-09T15:50:21.955Z,21.05
2023-04-09T15:51:44.645Z,19.58
2023-04-09T15:53:08.055Z,18.85
2023-04-09T15:54:31.506Z,22.27
2023-04-09T15:55:56.925Z,22.05
2023-04-09T15:57:21.009Z,21.17
2023-04-09T15:58:44.534Z,20.02
2023-04-09T16:00:10.182Z,20.35
2023-04-09T16:01:33.766Z,20.80
2023-04-09T16:02:57.203Z,24.75
2023-04-09T16:04:20.601Z,20.02
2023-04-09T16:05:44.108Z,21.40
2023-04-09T16:07:07.723Z,25.25
2023-04-09T16:08:34.401Z,20.13
2023-04-09T16:09:58.941Z,18.75
2023-04-09T16:11:24.418Z,17.23
2023-04-09T16:12:48.644Z,22.30
2023-04-09T16:14:12.056Z,23.02
2023-04-09T16:15:35.950Z,20.48
2023-04-09T16:16:59.447Z,20.52
2023-04-09T16:18:22.902Z,19.40
2023-04-09T16:19:46.314Z,19.25
2023-04-09T16:21:09.772Z,17.00
2023-04-09T16:22:34.065Z,19.73
2023-04-09T16:23:57.468Z,19.45
2023-04-09T16:25:21.032Z,19.80
2023-04-09T16:26:46.736Z,19.83
2023-04-09T16:28:10.422Z,20.17
2023-04-09T16:29:34.253Z,18.20
2023-04-09T16:30:57.662Z,18.88
2023-04-09T16:32:21.416Z,17.42
2023-04-09T16:33:44.885Z,19.17
2023-04-09T16:35:08.851Z,20.60
2023-04-09T16:36:33.549Z,15.20
2023-04-09T16:37:57.054Z,18.63
2023-04-09T16:39:21.540Z,17.05
2023-04-09T16:40:45.535Z,14.93
2023-04-09T16:42:11.152Z,18.13
2023-04-09T16:43:34.927Z,16.15
2023-04-09T16:44:59.897Z,17.58
2023-04-09T16:46:23.492Z,16.55
2023-04-09T16:47:53.770Z,14.27
2023-04-09T16:49:17.426Z,18.92
2023-04-09T16:50:40.896Z,17.50
2023-04-09T16:52:04.312Z,15.85
2023-04-09T16:53:27.861Z,16.58
2023-04-09T16:54:51.725Z,16.55
2023-04-09T16:56:17.546Z,13.15
2023-04-09T16:57:43.001Z,13.48
2023-04-09T16:59:06.588Z,16.38
2023-04-09T17:00:30.024Z,15.43
2023-04-09T17:01:53.620Z,15.65
2023-04-09T17:03:17.204Z,15.02
2023-04-09T17:04:40.641Z,13.70
2023-04-09T17:06:04.392Z,13.57
2023-04-09T17:07:28.532Z,11.48
2023-04-09T17:08:52.101Z,14.57
2023-04-09T17:10:15.774Z,13.95
2023-04-09T17:11:39.201Z,16.85
2023-04-09T17:13:06.382Z,15.68
2023-04-09T17:14:29.772Z,15.57
2023-04-09T17:15:53.765Z,12.55
2023-04-09T17:18:40.592Z,17.10
2023-04-09T17:20:04.470Z,14.82
2023-04-09T17:21:27.889Z,14.27
2023-04-09T17:22:51.319Z,13.60
2023-04-09T17:24:14.907Z,16.02
2023-04-09T17:25:38.296Z,14.65
2023-04-09T17:27:01.744Z,13.63
2023-04-09T17:28:26.543Z,15.05
2023-04-09T17:29:50.765Z,17.50
2023-04-09T17:31:14.689Z,17.58
2023-04-09T17:32:39.299Z,16.95
2023-04-09T17:34:02.688Z,16.05
2023-04-09T17:35:26.174Z,15.38
2023-04-09T17:36:56.217Z,16.23
2023-04-09T17:38:21.310Z,14.90
2023-04-09T17:39:44.772Z,16.83
2023-04-09T17:41:09.325Z,14.85
2023-04-09T17:42:32.792Z,16.15
2023-04-09T17:43:58.111Z,15.63
2023-04-09T17:45:21.731Z,15.88
2023-04-09T17:46:45.898Z,16.42
2023-04-09T17:48:09.504Z,16.92
2023-04-09T17:49:35.523Z,17.98
2023-04-09T17:50:58.947Z,14.52
2023-04-09T17:52:23.288Z,15.48
2023-04-09T17:53:47.294Z,18.85
2023-04-09T17:55:12.465Z,18.35
2023-04-09T17:56:38.836Z,15.45
2023-04-09T17:58:03.090Z,15.55
2023-04-09T17:59:28.039Z,18.50
2023-04-09T18:00:51.819Z,15.68
2023-04-09T18:02:15.393Z,17.85
2023-04-09T18:03:39.942Z,16.48
2023-04-09T18:05:04.793Z,15.57
2023-04-09T18:06:29.132Z,16.50
2023-04-09T18:07:52.170Z,16.65
2023-04-09T18:09:17.341Z,20.88
2023-04-09T18:10:40.829Z,16.45